CheckWX is a tool to help pilots better visualize weather data.  It is not intended as a substitute for an official pre-flight weather briefing.

02:33:00 UTC

VEMN TAF
Dibrugarh Airport
Dibrugarh, India
TAF VEMN 041700Z 0418/0503 05005KT 3000 -RA BR SCT018 BKN090 BECMG 0421/0423 00000KT 2000 -RA BR FEW010 SCT018 FEW025CB BKN090 BECMG 0501/0503 2500 -TSRA BR SCT010 SCT018 FEW025CB BKN090

Jun-4@
18:00 UTC

Jun-4 @ 18:00 UTC

Jun-4@
21:00 UTC

Jun-4 @ 21:00 UTC

TAF VEMN 041700Z 0418/0503 05005KT 3000 -RA BR SCT018 BKN090

Expired

Wind
  • 050° at 5 KTS
Conditions
Light Rain, Mist
Cloud Levels
  • Scattered at 1,800' AGL
  • Broken at 9,000' AGL

Jun-4@
21:00 UTC

Jun-4 @ 21:00 UTC

Jun-5@
01:00 UTC

Jun-5 @ 01:00 UTC

BECMG 0421/0423 00000KT 2000 -RA BR FEW010 SCT018 FEW025CB BKN090

Expired

Conditions
Light Rain, Mist
Cloud Levels
  • Few at 1,000' AGL
  • Scattered at 1,800' AGL
  • Few at 2,500' AGL

Jun-5@
01:00 UTC

Jun-5 @ 01:00 UTC

Jun-5@
03:00 UTC

Jun-5 @ 03:00 UTC

BECMG 0501/0503 2500 -TSRA BR SCT010 SCT018 FEW025CB BKN090

Becoming

Becoming Conditions expected by Fri, Jun 5, 2020 @ 03:00 UTC

Conditions
Light Thunderstorm, Rain, Mist
Cloud Levels
  • Scattered at 1,000' AGL
  • Scattered at 1,800' AGL
  • Few at 2,500' AGL